createdAt,value
2018-12-14T00:00:59.072Z,102121.56
2018-12-14T00:04:02.659Z,102114.01
2018-12-14T00:07:06.220Z,102116.00
2018-12-14T00:10:10.146Z,102124.84
2018-12-14T00:13:13.630Z,102124.75
2018-12-14T00:16:17.193Z,102133.17
2018-12-14T00:19:20.804Z,102129.29
2018-12-14T00:22:24.591Z,102133.54
2018-12-14T00:25:28.346Z,102139.80
2018-12-14T00:28:31.887Z,102139.72
2018-12-14T00:31:35.439Z,102142.22
2018-12-14T00:34:39.115Z,102142.04
2018-12-14T00:37:42.743Z,102144.40
2018-12-14T00:40:46.281Z,102136.83
2018-12-14T00:43:49.883Z,102142.05
2018-12-14T00:46:53.555Z,102143.70
2018-12-14T00:49:57.084Z,102146.65
2018-12-14T00:53:00.682Z,102149.52
2018-12-14T00:56:04.241Z,102153.62
2018-12-14T00:59:07.901Z,102152.15
2018-12-14T01:02:16.801Z,102155.27
2018-12-14T01:05:20.419Z,102153.76
2018-12-14T01:08:24.023Z,102158.09
2018-12-14T01:11:28.681Z,102164.35
2018-12-14T01:14:32.254Z,102168.64
2018-12-14T01:17:35.940Z,102170.50
2018-12-14T01:20:39.551Z,102167.43
2018-12-14T01:23:43.265Z,102165.70
2018-12-14T01:26:46.955Z,102163.99
2018-12-14T01:29:50.471Z,102156.33
2018-12-14T01:32:53.990Z,102158.76
2018-12-14T01:35:57.619Z,102155.07
2018-12-14T01:39:01.230Z,102153.48
2018-12-14T01:42:05.842Z,102151.38
2018-12-14T01:45:09.449Z,102151.49
2018-12-14T01:48:13.724Z,102158.46
2018-12-14T01:51:16.543Z,102159.20
2018-12-14T01:54:20.193Z,102159.95
2018-12-14T01:57:23.811Z,102153.89
2018-12-14T02:00:27.417Z,102159.11
2018-12-14T02:03:30.959Z,102155.55
2018-12-14T02:06:34.549Z,102155.20
2018-12-14T02:09:38.203Z,102152.97
2018-12-14T02:12:41.805Z,102159.45
2018-12-14T02:15:45.381Z,102159.57
2018-12-14T02:18:49.016Z,102157.06
2018-12-14T02:21:52.520Z,102157.15
2018-12-14T02:24:56.007Z,102155.15
2018-12-14T02:27:59.573Z,102152.05
2018-12-14T02:31:03.097Z,102145.98
2018-12-14T02:34:06.756Z,102144.08
2018-12-14T02:37:10.564Z,102146.63
2018-12-14T02:40:14.136Z,102144.80
2018-12-14T02:43:17.771Z,102144.58
2018-12-14T02:46:21.226Z,102144.01
2018-12-14T02:49:25.871Z,102133.80
2018-12-14T02:52:29.352Z,102136.39
2018-12-14T02:55:32.962Z,102140.17
2018-12-14T02:58:36.898Z,102137.93
2018-12-14T03:01:41.390Z,102138.85
2018-12-14T03:04:45.005Z,102139.84
2018-12-14T03:07:48.623Z,102140.87
2018-12-14T03:10:52.221Z,102137.97
2018-12-14T03:13:55.830Z,102138.85
2018-12-14T03:16:59.486Z,102147.82
2018-12-14T03:20:03.097Z,102147.04
2018-12-14T03:23:06.618Z,102144.11
2018-12-14T03:26:10.195Z,102149.02
2018-12-14T03:29:13.640Z,102159.90
2018-12-14T03:32:17.167Z,102157.59
2018-12-14T03:35:20.731Z,102155.76
2018-12-14T03:38:24.515Z,102160.44
2018-12-14T03:41:28.044Z,102161.52
2018-12-14T03:44:31.527Z,102171.63
2018-12-14T03:47:34.966Z,102164.30
2018-12-14T03:50:38.452Z,102158.24
2018-12-14T03:53:41.989Z,102152.35
2018-12-14T03:56:45.615Z,102152.43
2018-12-14T03:59:49.118Z,102154.52
2018-12-14T04:02:52.706Z,102157.70
2018-12-14T04:05:56.243Z,102153.24
2018-12-14T04:09:00.777Z,102156.84
2018-12-14T04:12:04.233Z,102150.72
2018-12-14T04:15:07.879Z,102154.29
2018-12-14T04:18:11.307Z,102157.18
2018-12-14T04:21:14.815Z,102162.72
2018-12-14T04:24:18.233Z,102162.86
2018-12-14T04:27:21.773Z,102157.08
2018-12-14T04:30:25.189Z,102162.47
2018-12-14T04:33:28.797Z,102157.73
2018-12-14T04:36:32.219Z,102151.15
2018-12-14T04:39:35.705Z,102150.60
2018-12-14T04:42:39.248Z,102153.63
2018-12-14T04:45:42.825Z,102154.81
2018-12-14T04:48:46.263Z,102152.84
2018-12-14T04:51:49.753Z,102152.58
2018-12-14T04:54:53.125Z,102157.15
2018-12-14T04:57:56.459Z,102155.61
2018-12-14T05:00:59.990Z,102153.64
2018-12-14T05:04:03.719Z,102153.75
2018-12-14T05:07:07.152Z,102157.44
2018-12-14T05:10:10.645Z,102154.88
2018-12-14T05:13:14.082Z,102156.40
2018-12-14T05:16:17.544Z,102155.80
2018-12-14T05:19:21.134Z,102158.73
2018-12-14T05:22:24.560Z,102153.38
2018-12-14T05:25:27.954Z,102155.48
2018-12-14T05:28:31.402Z,102158.55
2018-12-14T05:31:34.952Z,102165.54
2018-12-14T05:34:38.387Z,102161.74
2018-12-14T05:37:41.849Z,102169.13
2018-12-14T05:40:45.392Z,102169.71
2018-12-14T05:43:48.962Z,102170.04
2018-12-14T05:46:52.373Z,102175.25
2018-12-14T05:49:55.781Z,102170.48
2018-12-14T05:52:59.279Z,102179.35
2018-12-14T05:56:02.929Z,102179.85
2018-12-14T05:59:06.678Z,102182.35
2018-12-14T06:02:10.079Z,102188.49
2018-12-14T06:05:13.605Z,102181.32
2018-12-14T06:08:18.874Z,102188.41
2018-12-14T06:11:22.471Z,102182.33
2018-12-14T06:14:26.385Z,102188.24
2018-12-14T06:17:31.059Z,102186.83
2018-12-14T06:20:35.491Z,102189.47
2018-12-14T06:23:39.083Z,102190.35
2018-12-14T06:26:43.701Z,102190.39
2018-12-14T06:29:47.223Z,102199.23
2018-12-14T06:32:50.753Z,102201.88
2018-12-14T06:35:54.302Z,102208.99
2018-12-14T06:38:57.867Z,102203.80
2018-12-14T06:42:01.280Z,102206.54
2018-12-14T06:45:04.940Z,102210.82
2018-12-14T06:48:08.565Z,102211.84
2018-12-14T06:51:12.067Z,102218.96
2018-12-14T06:54:15.474Z,102218.23
2018-12-14T06:57:18.900Z,102223.13
2018-12-14T07:00:22.247Z,102226.39
2018-12-14T07:03:25.777Z,102228.30
2018-12-14T07:06:29.322Z,102229.00
2018-12-14T07:09:32.731Z,102238.48
2018-12-14T07:12:36.339Z,102243.87
2018-12-14T07:15:40.195Z,102246.65
2018-12-14T07:18:43.595Z,102250.39
2018-12-14T07:21:47.014Z,102252.14
2018-12-14T07:24:50.408Z,102254.61
2018-12-14T07:27:53.830Z,102255.83
2018-12-14T07:30:57.244Z,102259.40
2018-12-14T07:34:00.890Z,102268.95
2018-12-14T07:37:05.422Z,102258.14
2018-12-14T07:40:09.088Z,102272.65
2018-12-14T07:43:12.628Z,102271.59
2018-12-14T07:46:16.181Z,102270.13
2018-12-14T07:49:19.812Z,102276.90
2018-12-14T07:52:23.504Z,102278.71
2018-12-14T07:55:27.547Z,102286.27
2018-12-14T07:58:31.154Z,102286.34
2018-12-14T08:01:34.789Z,102293.52
2018-12-14T08:04:38.261Z,102298.34
2018-12-14T08:07:41.901Z,102296.41
2018-12-14T08:10:45.492Z,102296.65
2018-12-14T08:13:48.961Z,102296.97
2018-12-14T08:16:52.704Z,102297.42
2018-12-14T08:19:56.171Z,102301.00
2018-12-14T08:22:59.860Z,102297.18
2018-12-14T08:26:03.380Z,102303.02
2018-12-14T08:29:06.882Z,102303.82
2018-12-14T08:32:10.494Z,102311.54
2018-12-14T08:35:14.133Z,102320.69
2018-12-14T08:38:17.605Z,102326.55
2018-12-14T08:41:21.308Z,102333.69
2018-12-14T08:44:24.928Z,102328.30
2018-12-14T08:47:28.427Z,102332.01
2018-12-14T08:50:32.066Z,102338.75
2018-12-14T08:53:35.755Z,102347.13
2018-12-14T08:56:41.715Z,102348.08
2018-12-14T08:59:45.302Z,102351.50
2018-12-14T09:02:48.899Z,102351.39
2018-12-14T09:05:52.535Z,102362.03
2018-12-14T09:08:57.218Z,102361.51
2018-12-14T09:12:00.791Z,102359.83
2018-12-14T09:15:04.404Z,102365.65
2018-12-14T09:18:08.118Z,102370.28
2018-12-14T09:21:11.603Z,102371.23
2018-12-14T09:24:15.223Z,102368.60
2018-12-14T09:27:18.739Z,102373.93
2018-12-14T09:30:22.301Z,102377.46
2018-12-14T09:33:25.866Z,102376.42
2018-12-14T09:36:29.326Z,102379.60
2018-12-14T09:39:32.736Z,102377.63
2018-12-14T09:42:36.165Z,102384.47
2018-12-14T09:45:39.638Z,102382.02
2018-12-14T09:48:43.115Z,102383.84
2018-12-14T09:51:46.726Z,102396.64
2018-12-14T09:54:51.364Z,102397.96
2018-12-14T09:57:54.778Z,102399.74
2018-12-14T10:00:58.202Z,102399.34
2018-12-14T10:04:01.668Z,102396.23
2018-12-14T10:07:05.235Z,102407.11
2018-12-14T10:10:10.311Z,102402.77
2018-12-14T10:13:13.808Z,102409.06
2018-12-14T10:16:17.286Z,102401.99
2018-12-14T10:19:21.072Z,102411.17
2018-12-14T10:22:24.811Z,102414.09
2018-12-14T10:25:29.427Z,102407.68
2018-12-14T10:28:33.207Z,102398.35
2018-12-14T10:31:36.972Z,102399.90
2018-12-14T10:34:40.532Z,102398.39
2018-12-14T10:37:43.928Z,102394.92
2018-12-14T10:40:47.481Z,102396.76
2018-12-14T10:43:50.986Z,102396.48
2018-12-14T10:46:54.662Z,102391.81
2018-12-14T10:49:58.251Z,102398.47
2018-12-14T10:53:02.270Z,102399.05
2018-12-14T10:56:05.865Z,102397.50
2018-12-14T10:59:09.239Z,102397.92
2018-12-14T11:02:12.712Z,102394.37
2018-12-14T11:05:16.209Z,102392.29
2018-12-14T11:08:19.768Z,102390.72
2018-12-14T11:11:23.198Z,102390.71
2018-12-14T11:14:26.628Z,102389.63
2018-12-14T11:17:30.085Z,102394.24
2018-12-14T11:20:33.605Z,102387.48
2018-12-14T11:23:37.194Z,102389.77
2018-12-14T11:26:40.598Z,102381.07
2018-12-14T11:29:43.984Z,102385.44
2018-12-14T11:32:47.370Z,102381.52
2018-12-14T11:35:50.877Z,102382.63
2018-12-14T11:38:54.384Z,102384.10
2018-12-14T11:41:57.755Z,102384.16
2018-12-14T11:45:01.287Z,102383.43
2018-12-14T11:48:04.804Z,102382.15
2018-12-14T11:51:09.620Z,102378.19
2018-12-14T11:54:13.115Z,102370.76
2018-12-14T11:57:16.717Z,102364.46
2018-12-14T12:00:20.132Z,102363.29
2018-12-14T12:03:23.643Z,102368.23
2018-12-14T12:06:27.140Z,102370.08
2018-12-14T12:09:30.701Z,102373.79
2018-12-14T12:12:34.341Z,102370.68
2018-12-14T12:15:37.860Z,102376.97
2018-12-14T12:18:41.442Z,102369.74
2018-12-14T12:21:45.099Z,102374.58
2018-12-14T12:24:48.653Z,102375.79
2018-12-14T12:27:52.180Z,102379.87
2018-12-14T12:30:55.692Z,102371.64
2018-12-14T12:33:59.326Z,102374.21
2018-12-14T12:37:02.891Z,102380.53
2018-12-14T12:40:06.400Z,102374.84
2018-12-14T12:43:09.972Z,102374.78
2018-12-14T12:46:13.402Z,102374.28
2018-12-14T12:49:16.908Z,102376.72
2018-12-14T12:52:20.343Z,102376.70
2018-12-14T12:55:24.286Z,102376.81
2018-12-14T12:58:28.951Z,102379.76
2018-12-14T13:01:32.488Z,102381.78
2018-12-14T13:04:36.078Z,102384.11
2018-12-14T13:07:39.649Z,102385.51
2018-12-14T13:10:43.215Z,102386.63
2018-12-14T13:13:46.831Z,102387.05
2018-12-14T13:16:50.527Z,102384.20
2018-12-14T13:19:54.178Z,102384.74
2018-12-14T13:22:57.679Z,102386.56
2018-12-14T13:26:01.196Z,102389.00
2018-12-14T13:29:04.894Z,102388.64
2018-12-14T13:32:08.488Z,102392.30
2018-12-14T13:35:11.991Z,102396.80
2018-12-14T13:38:15.609Z,102402.57
2018-12-14T13:41:19.133Z,102402.02
2018-12-14T13:44:22.799Z,102405.41
2018-12-14T13:47:26.351Z,102403.01
2018-12-14T13:50:29.814Z,102412.81
2018-12-14T13:53:33.316Z,102413.86
2018-12-14T13:56:36.708Z,102415.51
2018-12-14T13:59:40.206Z,102427.20
2018-12-14T14:02:43.758Z,102435.09
2018-12-14T14:05:47.222Z,102434.23
2018-12-14T14:08:50.772Z,102445.93
2018-12-14T14:11:54.175Z,102447.89
2018-12-14T14:14:57.716Z,102447.25
2018-12-14T14:18:01.739Z,102450.59
2018-12-14T14:21:05.213Z,102450.09
2018-12-14T14:24:08.821Z,102457.87
2018-12-14T14:27:12.423Z,102457.40
2018-12-14T14:30:16.164Z,102460.66
2018-12-14T14:33:19.634Z,102468.84
2018-12-14T14:36:23.189Z,102469.82
2018-12-14T14:39:26.691Z,102473.86
2018-12-14T14:42:30.131Z,102475.89
2018-12-14T14:45:33.560Z,102475.17
2018-12-14T14:48:37.494Z,102478.26
2018-12-14T14:51:40.996Z,102483.01
2018-12-14T14:54:44.556Z,102485.57
2018-12-14T14:57:48.008Z,102491.35
2018-12-14T15:00:51.453Z,102484.95
2018-12-14T15:03:54.844Z,102490.90
2018-12-14T15:06:58.186Z,102494.99
2018-12-14T15:10:01.766Z,102495.29
2018-12-14T15:13:05.167Z,102503.23
2018-12-14T15:16:08.949Z,102507.17
2018-12-14T15:19:12.617Z,102506.19
2018-12-14T15:22:17.117Z,102510.97
2018-12-14T15:25:20.805Z,102511.12
2018-12-14T15:28:25.127Z,102519.78
2018-12-14T15:31:28.685Z,102522.03
2018-12-14T15:34:32.205Z,102525.93
2018-12-14T15:37:35.785Z,102522.16
2018-12-14T15:40:39.312Z,102522.47
2018-12-14T15:43:42.898Z,102529.63
2018-12-14T15:46:46.520Z,102530.76
2018-12-14T15:49:50.104Z,102531.37
2018-12-14T15:52:54.712Z,102535.46
2018-12-14T15:55:58.267Z,102539.14
2018-12-14T15:59:01.916Z,102539.33
2018-12-14T16:02:05.713Z,102540.80
2018-12-14T16:05:09.248Z,102534.09
2018-12-14T16:08:12.831Z,102538.14
2018-12-14T16:11:16.384Z,102549.60
2018-12-14T16:14:19.857Z,102551.37
2018-12-14T16:17:23.602Z,102552.98
2018-12-14T16:20:27.210Z,102553.48
2018-12-14T16:23:30.799Z,102564.88
2018-12-14T16:26:34.340Z,102567.79
2018-12-14T16:29:37.676Z,102569.13
2018-12-14T16:32:41.422Z,102575.05
2018-12-14T16:35:45.012Z,102574.33
2018-12-14T16:38:48.562Z,102577.55
2018-12-14T16:41:52.197Z,102584.18
2018-12-14T16:44:55.885Z,102589.49
2018-12-14T16:47:59.474Z,102599.03
2018-12-14T16:51:02.992Z,102598.66
2018-12-14T16:54:07.323Z,102596.18
2018-12-14T16:57:10.835Z,102599.37
2018-12-14T17:00:14.442Z,102592.35
2018-12-14T17:03:18.184Z,102590.78
2018-12-14T17:06:21.753Z,102600.69
2018-12-14T17:09:25.212Z,102602.15
2018-12-14T17:12:28.622Z,102603.03
2018-12-14T17:15:33.616Z,102602.95
2018-12-14T17:18:36.856Z,102606.49
2018-12-14T17:21:40.570Z,102604.84
2018-12-14T17:24:47.725Z,102602.28
2018-12-14T17:28:00.451Z,102604.89
2018-12-14T17:31:04.066Z,102618.39
2018-12-14T17:34:07.508Z,102612.80
2018-12-14T17:37:10.960Z,102612.54
2018-12-14T17:40:14.795Z,102619.30
2018-12-14T17:43:18.171Z,102627.72
2018-12-14T17:46:21.589Z,102629.37
2018-12-14T17:49:25.138Z,102619.50
2018-12-14T17:52:28.720Z,102630.33
2018-12-14T17:55:32.182Z,102633.45
2018-12-14T17:58:35.732Z,102636.26
2018-12-14T18:01:39.397Z,102636.64
2018-12-14T18:04:42.910Z,102642.44
2018-12-14T18:07:46.499Z,102651.93
2018-12-14T18:10:50.125Z,102653.28
2018-12-14T18:13:53.584Z,102651.85
2018-12-14T18:16:57.848Z,102646.80
2018-12-14T18:20:01.292Z,102656.25
2018-12-14T18:23:04.933Z,102662.51
2018-12-14T18:26:08.464Z,102670.02
2018-12-14T18:29:12.163Z,102666.15
2018-12-14T18:32:15.806Z,102674.64
2018-12-14T18:35:19.413Z,102675.81
2018-12-14T18:38:22.968Z,102680.69
2018-12-14T18:41:26.539Z,102681.46
2018-12-14T18:44:30.173Z,102682.89
2018-12-14T18:47:34.756Z,102676.40
2018-12-14T18:50:38.327Z,102681.00
2018-12-14T18:53:46.074Z,102692.49
2018-12-14T18:56:49.697Z,102695.52
2018-12-14T18:59:53.182Z,102696.02
2018-12-14T19:02:56.625Z,102697.52
2018-12-14T19:06:00.288Z,102700.38
2018-12-14T19:09:04.835Z,102709.04
2018-12-14T19:12:09.352Z,102707.41
2018-12-14T19:15:14.217Z,102707.17
2018-12-14T19:18:18.143Z,102716.21
2018-12-14T19:21:21.712Z,102719.06
2018-12-14T19:24:25.365Z,102722.32
2018-12-14T19:27:29.017Z,102725.25
2018-12-14T19:30:32.732Z,102731.01
2018-12-14T19:33:36.529Z,102730.00
2018-12-14T19:36:40.256Z,102732.45
2018-12-14T19:39:44.076Z,102733.46
2018-12-14T19:42:47.676Z,102733.11
2018-12-14T19:45:51.198Z,102729.89
2018-12-14T19:48:54.902Z,102731.93
2018-12-14T19:51:58.550Z,102735.37
2018-12-14T19:55:02.058Z,102728.97
2018-12-14T19:58:05.549Z,102731.18
2018-12-14T20:01:09.148Z,102734.04
2018-12-14T20:04:12.699Z,102738.04
2018-12-14T20:07:16.647Z,102740.37
2018-12-14T20:10:20.578Z,102738.27
2018-12-14T20:13:25.296Z,102743.08
2018-12-14T20:16:29.338Z,102748.72
2018-12-14T20:19:33.075Z,102743.15
2018-12-14T20:22:37.197Z,102743.54
2018-12-14T20:25:40.982Z,102745.10
2018-12-14T20:28:44.542Z,102751.03
2018-12-14T20:31:48.314Z,102747.08
2018-12-14T20:34:51.874Z,102753.38
2018-12-14T20:37:55.583Z,102758.03
2018-12-14T20:40:59.302Z,102758.82
2018-12-14T20:44:02.951Z,102763.06
2018-12-14T20:47:07.624Z,102757.37
2018-12-14T20:50:11.368Z,102755.30
2018-12-14T20:53:14.962Z,102755.68
2018-12-14T20:56:18.793Z,102758.07
2018-12-14T20:59:22.607Z,102756.99
2018-12-14T21:02:26.118Z,102756.47
2018-12-14T21:05:29.732Z,102761.73
2018-12-14T21:08:33.460Z,102760.39
2018-12-14T21:11:38.041Z,102758.96
2018-12-14T21:14:41.588Z,102762.20
2018-12-14T21:17:45.394Z,102760.73
2018-12-14T21:20:49.016Z,102753.85
2018-12-14T21:23:52.846Z,102758.92
2018-12-14T21:26:56.261Z,102753.17
2018-12-14T21:29:59.854Z,102753.47
2018-12-14T21:33:03.468Z,102749.22
2018-12-14T21:36:07.000Z,102751.77
2018-12-14T21:39:10.947Z,102743.68
2018-12-14T21:42:14.474Z,102743.52
2018-12-14T21:45:18.008Z,102742.37
2018-12-14T21:48:21.686Z,102738.25
2018-12-14T21:51:25.314Z,102742.14
2018-12-14T21:54:28.880Z,102743.06
2018-12-14T21:57:32.480Z,102742.92
2018-12-14T22:00:36.213Z,102736.56
2018-12-14T22:03:39.757Z,102740.40
2018-12-14T22:06:43.268Z,102739.74
2018-12-14T22:09:48.277Z,102739.82
2018-12-14T22:12:50.510Z,102741.60
2018-12-14T22:15:54.067Z,102734.14
2018-12-14T22:18:57.627Z,102734.02
2018-12-14T22:22:01.223Z,102739.11
2018-12-14T22:25:04.792Z,102741.58
2018-12-14T22:28:10.347Z,102740.41
2018-12-14T22:31:14.108Z,102736.77
2018-12-14T22:34:17.668Z,102736.86
2018-12-14T22:37:21.230Z,102743.78
2018-12-14T22:40:25.924Z,102740.56
2018-12-14T22:43:30.433Z,102738.75
2018-12-14T22:46:34.088Z,102738.02
2018-12-14T22:49:37.918Z,102733.81
2018-12-14T22:52:41.485Z,102729.39
2018-12-14T22:55:45.154Z,102735.98
2018-12-14T22:58:48.798Z,102733.82
2018-12-14T23:01:52.305Z,102732.74
2018-12-14T23:04:55.815Z,102734.67
2018-12-14T23:07:59.345Z,102741.18
2018-12-14T23:11:03.963Z,102741.89
2018-12-14T23:14:07.391Z,102747.36
2018-12-14T23:17:10.802Z,102748.15
2018-12-14T23:20:14.403Z,102751.17
2018-12-14T23:23:17.876Z,102750.45
2018-12-14T23:26:21.462Z,102746.16
2018-12-14T23:29:25.006Z,102743.14
2018-12-14T23:32:28.472Z,102740.68
2018-12-14T23:35:32.009Z,102743.24
2018-12-14T23:38:35.376Z,102740.40
2018-12-14T23:41:38.914Z,102746.63
2018-12-14T23:44:42.421Z,102741.89
2018-12-14T23:47:45.991Z,102746.13
2018-12-14T23:50:49.485Z,102747.66
2018-12-14T23:53:52.991Z,102751.08
2018-12-14T23:56:56.482Z,102751.06
